createdAt,value
2019-05-01T00:01:18.193Z,40.90
2019-05-01T00:04:23.276Z,40.53
2019-05-01T00:06:53.634Z,42.67
2019-05-01T00:09:20.967Z,42.83
2019-05-01T00:11:50.367Z,40.40
2019-05-01T00:14:17.754Z,42.00
2019-05-01T00:16:45.225Z,39.80
2019-05-01T00:19:12.568Z,43.30
2019-05-01T00:21:39.942Z,43.17
2019-05-01T00:24:07.515Z,48.20
2019-05-01T00:26:34.979Z,45.40
2019-05-01T00:29:02.379Z,44.83
2019-05-01T00:31:29.767Z,48.27
2019-05-01T00:33:57.126Z,44.93
2019-05-01T00:36:24.628Z,48.93
2019-05-01T00:38:52.018Z,49.10
2019-05-01T00:41:19.399Z,47.40
2019-05-01T00:43:46.697Z,47.33
2019-05-01T00:46:14.050Z,44.90
2019-05-01T00:48:41.385Z,49.87
2019-05-01T00:51:09.143Z,49.37
2019-05-01T00:53:36.492Z,47.93
2019-05-01T00:56:17.851Z,48.13
2019-05-01T00:59:03.135Z,48.07
2019-05-01T01:01:47.974Z,48.87
2019-05-01T01:04:17.359Z,52.77
2019-05-01T01:06:44.691Z,52.70
2019-05-01T01:09:12.404Z,52.27
2019-05-01T01:11:39.731Z,53.80
2019-05-01T01:14:07.443Z,51.63
2019-05-01T01:16:34.809Z,56.80
2019-05-01T01:19:02.171Z,54.97
2019-05-01T01:21:29.591Z,54.90
2019-05-01T01:23:57.261Z,53.13
2019-05-01T01:26:24.621Z,58.87
2019-05-01T01:28:52.075Z,54.43
2019-05-01T01:31:19.484Z,57.10
2019-05-01T01:33:46.731Z,57.67
2019-05-01T01:36:14.124Z,53.77
2019-05-01T01:38:41.365Z,57.77
2019-05-01T01:41:08.745Z,57.37
2019-05-01T01:43:44.699Z,56.90
2019-05-01T01:46:14.155Z,59.90
2019-05-01T01:48:41.507Z,62.30
2019-05-01T01:51:08.919Z,60.70
2019-05-01T01:53:36.411Z,63.90
2019-05-01T01:56:03.865Z,64.27
2019-05-01T01:58:31.329Z,58.60
2019-05-01T02:01:24.383Z,62.47
2019-05-01T02:03:56.677Z,63.40
2019-05-01T02:06:24.021Z,60.50
2019-05-01T02:08:56.548Z,61.83
2019-05-01T02:11:20.687Z,60.37
2019-05-01T02:13:48.133Z,63.47
2019-05-01T02:16:15.389Z,64.57
2019-05-01T02:18:42.901Z,63.20
2019-05-01T02:21:10.317Z,62.37
2019-05-01T02:23:37.645Z,63.97
2019-05-01T02:26:05.989Z,63.37
2019-05-01T02:28:48.275Z,67.67
2019-05-01T02:31:37.963Z,69.13
2019-05-01T02:34:05.704Z,65.87
2019-05-01T02:36:35.920Z,65.70
2019-05-01T02:39:07.384Z,65.13
2019-05-01T02:41:41.354Z,66.17
2019-05-01T02:44:11.721Z,66.43
2019-05-01T02:46:43.618Z,65.60
2019-05-01T02:49:16.655Z,66.30
2019-05-01T02:51:45.083Z,74.93
2019-05-01T02:54:15.495Z,67.93
2019-05-01T02:56:55.147Z,72.87
2019-05-01T02:59:25.363Z,70.87
2019-05-01T03:01:53.435Z,66.70
2019-05-01T03:04:21.070Z,66.70
2019-05-01T03:06:49.089Z,66.87
2019-05-01T03:09:17.851Z,66.03
2019-05-01T03:11:47.274Z,69.90
2019-05-01T03:14:18.679Z,70.67
2019-05-01T03:16:47.295Z,70.80
2019-05-01T03:19:24.807Z,66.37
2019-05-01T03:22:02.533Z,71.33
2019-05-01T03:24:29.986Z,69.00
2019-05-01T03:26:57.441Z,67.00
2019-05-01T03:29:25.038Z,68.97
2019-05-01T03:32:14.092Z,71.20
2019-05-01T03:34:22.005Z,68.93
2019-05-01T03:36:49.470Z,74.87
2019-05-01T03:39:17.131Z,72.37
2019-05-01T03:41:45.221Z,66.23
2019-05-01T03:44:12.784Z,68.77
2019-05-01T03:46:40.453Z,64.40
2019-05-01T03:49:08.167Z,67.27
2019-05-01T03:51:36.181Z,62.37
2019-05-01T03:54:03.750Z,70.10
2019-05-01T03:56:31.382Z,66.63
2019-05-01T03:58:59.063Z,64.43
2019-05-01T04:01:37.457Z,63.30
2019-05-01T04:04:17.370Z,64.10
2019-05-01T04:06:44.946Z,67.27
2019-05-01T04:09:12.392Z,67.83
2019-05-01T04:11:39.786Z,67.00
2019-05-01T04:14:07.398Z,65.93
2019-05-01T04:16:35.161Z,71.67
2019-05-01T04:19:03.566Z,64.60
2019-05-01T04:21:36.412Z,65.70
2019-05-01T04:24:03.739Z,66.77
2019-05-01T04:26:31.397Z,63.60
2019-05-01T04:29:05.466Z,61.07
2019-05-01T04:31:43.102Z,64.93
2019-05-01T04:34:22.369Z,63.50
2019-05-01T04:36:52.908Z,58.63
2019-05-01T04:39:20.652Z,61.73
2019-05-01T04:41:48.065Z,60.37
2019-05-01T04:44:16.125Z,62.27
2019-05-01T04:46:43.465Z,64.83
2019-05-01T04:49:11.227Z,59.53
2019-05-01T04:51:38.974Z,62.20
2019-05-01T04:54:06.840Z,68.50
2019-05-01T04:56:34.236Z,67.37
2019-05-01T04:59:02.129Z,66.33
2019-05-01T05:01:49.079Z,68.37
2019-05-01T05:04:16.454Z,63.37
2019-05-01T05:06:43.915Z,62.73
2019-05-01T05:09:11.407Z,66.20
2019-05-01T05:11:48.596Z,70.03
2019-05-01T05:14:20.690Z,73.20
2019-05-01T05:16:57.709Z,73.03
2019-05-01T05:19:25.042Z,74.60
2019-05-01T05:21:52.406Z,78.37
2019-05-01T05:24:19.846Z,78.03
2019-05-01T05:26:48.038Z,91.80
2019-05-01T05:29:17.876Z,87.83
2019-05-01T05:31:45.541Z,93.70
2019-05-01T05:34:18.075Z,107.00
2019-05-01T05:36:47.203Z,105.50
2019-05-01T05:39:28.178Z,110.73
2019-05-01T05:41:56.556Z,113.03
2019-05-01T05:44:23.861Z,113.23
2019-05-01T05:46:51.299Z,109.90
2019-05-01T05:49:19.058Z,105.43
2019-05-01T05:52:00.822Z,101.83
2019-05-01T05:54:47.819Z,105.87
2019-05-01T05:57:21.831Z,99.57
2019-05-01T05:59:53.055Z,99.40
2019-05-01T06:02:31.908Z,99.43
2019-05-01T06:05:24.042Z,100.63
2019-05-01T06:08:10.233Z,103.57
2019-05-01T06:10:58.377Z,104.27
2019-05-01T06:13:46.368Z,105.23
2019-05-01T06:16:20.679Z,116.00
2019-05-01T06:19:20.717Z,114.80
2019-05-01T06:22:23.519Z,109.13
2019-05-01T06:24:56.511Z,106.27
2019-05-01T06:27:23.986Z,109.23
2019-05-01T06:29:51.690Z,103.13
2019-05-01T06:32:19.027Z,102.57
2019-05-01T06:34:46.410Z,102.73
2019-05-01T06:37:13.873Z,115.70
2019-05-01T06:39:42.863Z,110.70
2019-05-01T06:42:15.054Z,107.57
2019-05-01T06:44:53.668Z,106.27
2019-05-01T06:47:43.149Z,109.73
2019-05-01T06:50:25.331Z,110.73
2019-05-01T06:52:52.979Z,112.33
2019-05-01T06:55:22.437Z,107.97
2019-05-01T06:57:50.069Z,117.10
2019-05-01T07:00:17.821Z,108.37
2019-05-01T07:02:47.746Z,108.13
2019-05-01T07:05:16.481Z,121.83
2019-05-01T07:07:48.008Z,111.50
2019-05-01T07:10:14.171Z,117.63
2019-05-01T07:12:41.489Z,116.57
2019-05-01T07:15:08.846Z,118.27
2019-05-01T07:17:36.147Z,116.77
2019-05-01T07:20:16.939Z,116.87
2019-05-01T07:22:45.617Z,114.07
2019-05-01T07:25:13.150Z,109.97
2019-05-01T07:27:40.493Z,120.53
2019-05-01T07:30:19.712Z,121.53
2019-05-01T07:32:46.985Z,120.43
2019-05-01T07:35:14.236Z,118.37
2019-05-01T07:37:41.578Z,121.77
2019-05-01T07:40:09.062Z,122.67
2019-05-01T07:42:39.391Z,120.90
2019-05-01T07:45:26.643Z,126.53
2019-05-01T07:47:54.465Z,126.60
2019-05-01T07:50:24.254Z,134.93
2019-05-01T07:52:52.223Z,133.57
2019-05-01T07:55:35.071Z,142.67
2019-05-01T07:58:03.705Z,138.97
2019-05-01T08:00:44.532Z,136.97
2019-05-01T08:03:11.869Z,160.57
2019-05-01T08:05:40.785Z,150.57
2019-05-01T08:08:09.641Z,152.13
2019-05-01T08:10:37.265Z,156.97
2019-05-01T08:13:04.637Z,152.13
2019-05-01T08:15:32.759Z,144.60
2019-05-01T08:18:24.137Z,153.77
2019-05-01T08:20:54.227Z,140.47
2019-05-01T08:23:21.626Z,158.23
2019-05-01T08:25:48.873Z,139.67
2019-05-01T08:28:21.893Z,136.97
2019-05-01T08:31:11.913Z,138.23
2019-05-01T08:33:52.527Z,131.10
2019-05-01T08:36:19.931Z,125.57
2019-05-01T08:38:47.305Z,131.67
2019-05-01T08:41:14.861Z,122.17
2019-05-01T08:43:42.281Z,124.23
2019-05-01T08:46:27.326Z,119.97
2019-05-01T08:48:59.072Z,111.20
2019-05-01T08:51:30.048Z,116.03
2019-05-01T08:53:57.854Z,115.30
2019-05-01T08:56:24.929Z,116.97
2019-05-01T08:58:52.417Z,119.40
2019-05-01T09:01:19.749Z,110.23
2019-05-01T09:03:49.804Z,109.23
2019-05-01T09:06:16.298Z,108.60
2019-05-01T09:08:43.697Z,95.83
2019-05-01T09:11:11.155Z,106.57
2019-05-01T09:13:38.479Z,102.63
2019-05-01T09:16:05.735Z,103.30
2019-05-01T09:18:33.079Z,94.73
2019-05-01T09:21:00.319Z,93.33
2019-05-01T09:23:27.709Z,91.57
2019-05-01T09:26:14.573Z,92.70
2019-05-01T09:28:41.726Z,96.60
2019-05-01T09:31:10.612Z,98.00
2019-05-01T09:33:38.029Z,94.50
2019-05-01T09:36:05.706Z,93.40
2019-05-01T09:38:33.128Z,96.83
2019-05-01T09:41:00.607Z,98.00
2019-05-01T09:43:30.932Z,85.73
2019-05-01T09:45:57.252Z,96.30
2019-05-01T09:48:24.660Z,104.00
2019-05-01T09:51:11.610Z,95.30
2019-05-01T09:53:58.228Z,89.97
2019-05-01T09:56:25.584Z,89.37
2019-05-01T09:58:52.958Z,90.37
2019-05-01T10:01:24.530Z,91.63
2019-05-01T10:03:54.406Z,91.97
2019-05-01T10:06:18.901Z,94.20
2019-05-01T10:08:46.260Z,89.53
2019-05-01T10:11:13.630Z,89.43
2019-05-01T10:13:40.944Z,98.77
2019-05-01T10:16:08.325Z,92.83
2019-05-01T10:18:35.770Z,92.07
2019-05-01T10:21:03.180Z,95.57
2019-05-01T10:23:30.600Z,106.83
2019-05-01T10:25:59.748Z,98.97
2019-05-01T10:28:38.859Z,117.27
2019-05-01T10:31:19.430Z,113.17
2019-05-01T10:33:47.154Z,108.70
2019-05-01T10:36:30.776Z,107.53
2019-05-01T10:38:58.028Z,111.43
2019-05-01T10:41:25.382Z,110.57
2019-05-01T10:43:52.770Z,109.13
2019-05-01T10:46:20.231Z,114.83
2019-05-01T10:48:47.610Z,123.07
2019-05-01T10:51:15.116Z,114.13
2019-05-01T10:53:43.300Z,117.57
2019-05-01T10:56:10.930Z,127.87
2019-05-01T10:58:38.338Z,126.63
2019-05-01T11:01:23.574Z,114.83
2019-05-01T11:03:51.320Z,122.37
2019-05-01T11:06:20.504Z,115.60
2019-05-01T11:08:48.036Z,118.23
2019-05-01T11:11:15.588Z,118.53
2019-05-01T11:13:43.020Z,123.43
2019-05-01T11:16:10.520Z,128.70
2019-05-01T11:18:38.018Z,125.33
2019-05-01T11:21:05.494Z,131.20
2019-05-01T11:23:32.802Z,130.97
2019-05-01T11:26:00.582Z,115.70
2019-05-01T11:28:27.958Z,123.47
2019-05-01T11:30:55.350Z,129.07
2019-05-01T11:33:40.712Z,133.53
2019-05-01T11:36:18.185Z,127.20
2019-05-01T11:38:53.522Z,127.93
2019-05-01T11:41:24.911Z,133.33
2019-05-01T11:43:52.483Z,122.10
2019-05-01T11:46:20.018Z,123.77
2019-05-01T11:48:47.481Z,120.27
2019-05-01T11:51:14.957Z,120.77
2019-05-01T11:53:42.407Z,122.30
2019-05-01T11:56:10.011Z,117.80
2019-05-01T11:58:37.399Z,108.97
2019-05-01T12:01:05.787Z,113.90
2019-05-01T12:03:33.184Z,108.07
2019-05-01T12:06:00.655Z,113.90
2019-05-01T12:08:28.067Z,114.53
2019-05-01T12:10:55.570Z,115.67
2019-05-01T12:13:22.892Z,100.27
2019-05-01T12:15:56.953Z,98.53
2019-05-01T12:18:24.353Z,104.60
2019-05-01T12:20:51.758Z,99.33
2019-05-01T12:23:19.158Z,99.37
2019-05-01T12:25:46.455Z,95.33
2019-05-01T12:28:14.045Z,105.13
2019-05-01T12:30:41.606Z,99.30
2019-05-01T12:33:44.538Z,104.83
2019-05-01T12:36:36.540Z,98.73
2019-05-01T12:38:54.227Z,106.67
2019-05-01T12:41:36.439Z,103.67
2019-05-01T12:44:04.565Z,141.10
2019-05-01T12:47:00.645Z,140.40
2019-05-01T12:49:28.095Z,100.20
2019-05-01T12:52:09.814Z,109.00
2019-05-01T12:54:35.669Z,117.43
2019-05-01T12:57:03.224Z,102.37
2019-05-01T12:59:30.585Z,113.63
2019-05-01T13:01:58.256Z,111.40
2019-05-01T13:04:25.661Z,103.33
2019-05-01T13:06:56.273Z,112.57
2019-05-01T13:09:23.680Z,103.20
2019-05-01T13:11:51.042Z,107.00
2019-05-01T13:14:18.440Z,104.10
2019-05-01T13:16:46.220Z,105.63
2019-05-01T13:19:13.657Z,111.60
2019-05-01T13:21:41.045Z,111.60
2019-05-01T13:24:08.449Z,108.63
2019-05-01T13:26:41.155Z,108.10
2019-05-01T13:29:20.921Z,110.10
2019-05-01T13:31:59.235Z,111.37
2019-05-01T13:34:26.621Z,104.30
2019-05-01T13:37:02.744Z,105.93
2019-05-01T13:39:23.335Z,104.83
2019-05-01T13:41:51.031Z,100.40
2019-05-01T13:44:20.261Z,100.50
2019-05-01T13:46:47.635Z,102.97
2019-05-01T13:49:15.037Z,103.67
2019-05-01T13:51:42.470Z,95.87
2019-05-01T13:54:10.357Z,100.90
2019-05-01T13:56:37.990Z,97.87
2019-05-01T13:59:07.887Z,98.07
2019-05-01T14:01:35.221Z,96.13
2019-05-01T14:04:02.704Z,89.17
2019-05-01T14:06:30.050Z,89.83
2019-05-01T14:08:57.435Z,82.93
2019-05-01T14:11:24.894Z,83.13
2019-05-01T14:13:52.275Z,84.67
2019-05-01T14:16:19.646Z,78.63
2019-05-01T14:18:47.016Z,86.27
2019-05-01T14:21:42.762Z,86.30
2019-05-01T14:24:35.603Z,83.00
2019-05-01T14:27:03.051Z,85.20
2019-05-01T14:29:30.808Z,76.17
2019-05-01T14:31:58.477Z,76.30
2019-05-01T14:34:25.808Z,75.43
2019-05-01T14:36:53.194Z,76.20
2019-05-01T14:39:20.547Z,73.80
2019-05-01T14:41:47.887Z,71.30
2019-05-01T14:44:15.305Z,68.30
2019-05-01T14:46:42.684Z,68.90
2019-05-01T14:49:10.052Z,66.97
2019-05-01T14:51:37.390Z,71.20
2019-05-01T14:54:05.049Z,64.17
2019-05-01T14:56:32.426Z,67.93
2019-05-01T14:58:59.802Z,65.40
2019-05-01T15:01:27.202Z,65.20
2019-05-01T15:03:54.613Z,66.57
2019-05-01T15:06:22.118Z,69.67
2019-05-01T15:08:49.509Z,60.37
2019-05-01T15:11:16.998Z,61.03
2019-05-01T15:13:59.628Z,58.03
2019-05-01T15:16:31.558Z,59.23
2019-05-01T15:19:13.196Z,58.00
2019-05-01T15:21:40.712Z,59.83
2019-05-01T15:24:07.989Z,56.67
2019-05-01T15:26:35.259Z,57.67
2019-05-01T15:29:02.642Z,53.60
2019-05-01T15:31:30.412Z,55.43
2019-05-01T15:33:57.815Z,60.17
2019-05-01T15:36:25.193Z,57.57
2019-05-01T15:38:52.585Z,56.77
2019-05-01T15:41:48.066Z,53.90
2019-05-01T15:44:19.421Z,55.80
2019-05-01T15:46:46.850Z,51.13
2019-05-01T15:49:14.239Z,48.23
2019-05-01T15:51:41.765Z,53.97
2019-05-01T15:54:09.162Z,50.30
2019-05-01T15:56:36.511Z,51.37
2019-05-01T15:59:03.903Z,52.17
2019-05-01T16:01:31.387Z,55.40
2019-05-01T16:03:58.723Z,52.00
2019-05-01T16:06:26.386Z,47.83
2019-05-01T16:08:53.767Z,48.27
2019-05-01T16:11:43.239Z,49.73
2019-05-01T16:14:10.666Z,48.13
2019-05-01T16:16:38.089Z,46.33
2019-05-01T16:19:05.422Z,50.27
2019-05-01T16:21:32.789Z,48.57
2019-05-01T16:24:00.192Z,49.37
2019-05-01T16:26:27.563Z,49.37
2019-05-01T16:28:54.877Z,48.90
2019-05-01T16:31:22.208Z,45.70
2019-05-01T16:33:49.577Z,57.90
2019-05-01T16:36:16.925Z,52.63
2019-05-01T16:38:55.335Z,52.77
2019-05-01T16:41:22.995Z,46.53
2019-05-01T16:43:50.725Z,54.03
2019-05-01T16:46:18.169Z,48.83
2019-05-01T16:48:45.538Z,50.30
2019-05-01T16:51:13.067Z,50.77
2019-05-01T16:53:40.413Z,49.67
2019-05-01T16:56:07.788Z,48.73
2019-05-01T16:58:35.528Z,50.47
2019-05-01T17:01:07.676Z,45.80
2019-05-01T17:03:46.549Z,47.80
2019-05-01T17:06:33.562Z,47.83
2019-05-01T17:09:12.760Z,48.07
2019-05-01T17:11:40.266Z,48.47
2019-05-01T17:14:08.402Z,47.60
2019-05-01T17:16:35.748Z,46.90
2019-05-01T17:19:03.273Z,49.00
2019-05-01T17:21:30.625Z,45.77
2019-05-01T17:23:58.088Z,53.07
2019-05-01T17:26:25.331Z,48.97
2019-05-01T17:28:52.879Z,49.80
2019-05-01T17:31:20.249Z,48.03
2019-05-01T17:33:50.798Z,49.90
2019-05-01T17:36:16.873Z,47.70
2019-05-01T17:38:49.767Z,50.60
2019-05-01T17:41:13.413Z,53.03
2019-05-01T17:43:44.633Z,49.13
2019-05-01T17:46:10.855Z,48.87
2019-05-01T17:48:39.385Z,50.53
2019-05-01T17:51:06.764Z,54.50
2019-05-01T17:53:34.151Z,49.93
2019-05-01T17:56:01.693Z,52.07
2019-05-01T17:58:29.145Z,53.73
2019-05-01T18:01:22.147Z,49.33
2019-05-01T18:04:20.918Z,50.30
2019-05-01T18:06:49.525Z,52.50
2019-05-01T18:09:17.290Z,52.37
2019-05-01T18:11:47.464Z,56.47
2019-05-01T18:14:13.886Z,55.37
2019-05-01T18:16:41.371Z,56.80
2019-05-01T18:19:10.002Z,56.30
2019-05-01T18:21:37.428Z,51.47
2019-05-01T18:24:24.698Z,54.17
2019-05-01T18:27:14.589Z,52.87
2019-05-01T18:29:46.732Z,55.53
2019-05-01T18:32:19.677Z,54.77
2019-05-01T18:34:47.096Z,57.87
2019-05-01T18:37:25.849Z,58.63
2019-05-01T18:39:53.251Z,57.13
2019-05-01T18:42:20.547Z,55.17
2019-05-01T18:44:48.907Z,55.57
2019-05-01T18:47:16.417Z,56.93
2019-05-01T18:49:43.872Z,60.63
2019-05-01T18:52:11.333Z,59.27
2019-05-01T18:54:38.689Z,65.80
2019-05-01T18:57:06.121Z,55.57
2019-05-01T18:59:33.557Z,61.87
2019-05-01T19:02:01.486Z,60.00
2019-05-01T19:04:29.315Z,59.93
2019-05-01T19:06:56.716Z,62.47
2019-05-01T19:09:30.095Z,59.27
2019-05-01T19:11:54.192Z,62.07
2019-05-01T19:14:23.504Z,62.23
2019-05-01T19:16:50.795Z,60.60
2019-05-01T19:19:18.201Z,64.23
2019-05-01T19:21:46.613Z,64.10
2019-05-01T19:24:15.351Z,62.00
2019-05-01T19:26:44.075Z,61.43
2019-05-01T19:29:11.533Z,61.83
2019-05-01T19:31:39.048Z,72.23
2019-05-01T19:34:06.705Z,61.97
2019-05-01T19:36:34.228Z,65.30
2019-05-01T19:39:01.768Z,65.80
2019-05-01T19:41:29.193Z,68.93
2019-05-01T19:43:56.537Z,66.87
2019-05-01T19:46:23.864Z,67.70
2019-05-01T19:48:52.716Z,67.50
2019-05-01T19:51:24.142Z,69.00
2019-05-01T19:53:51.583Z,67.27
2019-05-01T19:56:21.527Z,66.40
2019-05-01T19:58:48.037Z,68.57
2019-05-01T20:01:15.326Z,68.70
2019-05-01T20:03:42.706Z,65.17
2019-05-01T20:06:10.177Z,68.87
2019-05-01T20:08:37.737Z,67.67
2019-05-01T20:11:05.089Z,71.90
2019-05-01T20:13:32.499Z,66.63
2019-05-01T20:15:59.886Z,69.43
2019-05-01T20:18:27.360Z,74.07
2019-05-01T20:20:54.762Z,75.23
2019-05-01T20:23:26.143Z,76.23
2019-05-01T20:25:55.851Z,73.97
2019-05-01T20:28:22.437Z,74.90
2019-05-01T20:30:51.273Z,75.83
2019-05-01T20:33:18.631Z,79.47
2019-05-01T20:35:45.965Z,74.07
2019-05-01T20:38:13.328Z,75.70
2019-05-01T20:40:40.695Z,76.67
2019-05-01T20:43:08.054Z,75.00
2019-05-01T20:45:35.495Z,73.50
2019-05-01T20:48:03.074Z,75.30
2019-05-01T20:50:30.605Z,77.00
2019-05-01T20:52:57.963Z,75.77
2019-05-01T20:55:25.239Z,77.73
2019-05-01T20:57:54.878Z,84.47
2019-05-01T21:00:24.137Z,79.70
2019-05-01T21:02:51.477Z,84.57
2019-05-01T21:05:24.701Z,79.57
2019-05-01T21:08:23.419Z,83.57
2019-05-01T21:10:59.405Z,81.20
2019-05-01T21:13:26.818Z,90.63
2019-05-01T21:15:56.427Z,89.70
2019-05-01T21:18:25.963Z,93.07
2019-05-01T21:20:54.158Z,91.03
2019-05-01T21:23:23.325Z,94.27
2019-05-01T21:25:50.859Z,92.20
2019-05-01T21:28:18.243Z,83.93
2019-05-01T21:30:47.427Z,92.77
2019-05-01T21:33:15.057Z,95.80
2019-05-01T21:35:44.348Z,93.97
2019-05-01T21:38:11.601Z,86.83
2019-05-01T21:40:41.113Z,90.40
2019-05-01T21:43:08.333Z,84.83
2019-05-01T21:45:35.589Z,89.80
2019-05-01T21:48:03.283Z,90.43
2019-05-01T21:50:30.651Z,88.80
2019-05-01T21:52:58.216Z,92.17
2019-05-01T21:55:30.221Z,98.03
2019-05-01T21:57:56.389Z,90.80
2019-05-01T22:00:26.151Z,95.63
2019-05-01T22:02:53.607Z,95.00
2019-05-01T22:05:20.933Z,98.50
2019-05-01T22:07:48.293Z,105.13
2019-05-01T22:10:15.649Z,107.27
2019-05-01T22:12:43.969Z,112.00
2019-05-01T22:15:27.735Z,106.30
2019-05-01T22:18:18.907Z,112.17
2019-05-01T22:20:50.845Z,111.63
2019-05-01T22:23:21.880Z,105.93
2019-05-01T22:25:50.548Z,107.80
2019-05-01T22:28:30.128Z,107.50
2019-05-01T22:31:10.993Z,110.67
2019-05-01T22:33:38.932Z,113.30
2019-05-01T22:36:06.460Z,107.07
2019-05-01T22:38:33.848Z,104.40
2019-05-01T22:41:08.795Z,101.97
2019-05-01T22:43:36.128Z,104.47
2019-05-01T22:46:05.495Z,109.13
2019-05-01T22:48:32.848Z,112.33
2019-05-01T22:51:06.813Z,104.43
2019-05-01T22:53:34.164Z,112.23
2019-05-01T22:56:02.270Z,110.67
2019-05-01T22:58:30.794Z,112.13
2019-05-01T23:00:59.487Z,110.47
2019-05-01T23:03:46.343Z,109.43
2019-05-01T23:06:13.715Z,103.73
2019-05-01T23:08:41.055Z,105.47
2019-05-01T23:11:19.062Z,105.17
2019-05-01T23:13:38.139Z,109.27
2019-05-01T23:16:05.986Z,104.83
2019-05-01T23:18:33.345Z,116.97
2019-05-01T23:21:00.701Z,101.77
2019-05-01T23:23:28.187Z,107.03
2019-05-01T23:25:55.531Z,115.77
2019-05-01T23:28:22.983Z,103.70
2019-05-01T23:30:50.544Z,105.93
2019-05-01T23:33:17.907Z,106.70
2019-05-01T23:35:45.273Z,112.47
2019-05-01T23:38:12.668Z,107.00
2019-05-01T23:40:40.297Z,108.33
2019-05-01T23:43:07.577Z,111.83
2019-05-01T23:45:34.881Z,111.53
2019-05-01T23:48:02.081Z,101.03
2019-05-01T23:50:29.438Z,104.73
2019-05-01T23:52:56.664Z,103.67
2019-05-01T23:55:24.053Z,104.90
2019-05-01T23:57:51.487Z,104.60
